Time;durP1;ratioP1;P1;durP2;ratioP2;P2;SDS_P1;SDS_P2;PMS_P1;PMS_P2;Temp;Humidity;BMP_temperature;BMP_pressure;BME280_temperature;BME280_humidity;BME280_pressure;Samples;Min_cycle;Max_cycle;Signal;HPM_P1;HPM_P2
2022/01/31 00:00:40;;;;;;;24.98;8.90;;;;;;;4.11;100.00;101474.03;4977093;28;20050;-68
2022/01/31 00:03:06;;;;;;;27.70;8.63;;;;;;;4.07;100.00;101479.94;4977486;28;20422;-68
2022/01/31 00:05:31;;;;;;;29.30;8.52;;;;;;;3.96;100.00;101461.94;4977797;28;20302;-69
2022/01/31 00:07:57;;;;;;;25.27;7.93;;;;;;;4.12;100.00;101459.47;4976894;28;20845;-69
2022/01/31 00:10:30;;;;;;;18.95;8.18;;;;;;;4.06;100.00;101443.19;4994113;28;20046;-68
2022/01/31 00:13:02;;;;;;;27.63;8.90;;;;;;;4.14;100.00;101435.75;4997117;28;20217;-69
2022/01/31 00:15:29;;;;;;;27.98;8.38;;;;;;;4.17;100.00;101425.28;4996823;28;20406;-69
2022/01/31 00:17:54;;;;;;;22.83;7.95;;;;;;;4.14;100.00;101414.16;4995459;28;20554;-69
2022/01/31 00:20:20;;;;;;;19.27;7.85;;;;;;;4.16;100.00;101415.56;4985952;28;20045;-70
2022/01/31 00:22:45;;;;;;;34.22;9.23;;;;;;;4.15;100.00;101400.41;4980730;28;20498;-69
2022/01/31 00:25:11;;;;;;;24.40;8.27;;;;;;;4.11;100.00;101384.97;4977511;28;20042;-69
2022/01/31 00:27:36;;;;;;;20.77;8.10;;;;;;;4.08;100.00;101391.69;4975694;28;20053;-68
2022/01/31 00:30:03;;;;;;;24.75;8.77;;;;;;;4.20;100.00;101387.00;4991947;28;20049;-69
2022/01/31 00:32:29;;;;;;;28.98;8.43;;;;;;;4.14;100.00;101371.78;4975214;28;20042;-69
2022/01/31 00:34:56;;;;;;;23.98;7.82;;;;;;;4.16;100.00;101344.53;4977375;28;20150;-69
2022/01/31 00:37:21;;;;;;;26.60;9.25;;;;;;;4.14;100.00;101322.41;4992348;28;20400;-69
2022/01/31 00:39:47;;;;;;;36.50;9.45;;;;;;;4.07;100.00;101315.31;4991826;28;20443;-69
2022/01/31 00:42:12;;;;;;;27.90;8.80;;;;;;;4.19;100.00;101304.41;4977508;28;20038;-69
2022/01/31 00:44:47;;;;;;;27.55;8.50;;;;;;;4.17;100.00;101289.50;4976977;28;20421;-69
2022/01/31 00:47:22;;;;;;;22.60;8.38;;;;;;;4.22;100.00;101282.28;4976976;28;20573;-69
2022/01/31 00:49:53;;;;;;;24.90;7.47;;;;;;;4.23;100.00;101266.91;4992075;28;20165;-69
2022/01/31 00:52:18;;;;;;;23.88;8.07;;;;;;;4.20;100.00;101272.81;4975354;28;20403;-69
2022/01/31 00:54:45;;;;;;;25.50;7.90;;;;;;;4.22;100.00;101247.19;4975644;28;20053;-69
2022/01/31 00:57:10;;;;;;;25.83;8.35;;;;;;;4.18;100.00;101239.84;4976164;28;20578;-70
2022/01/31 00:59:36;;;;;;;25.67;8.27;;;;;;;4.15;100.00;101226.84;5000334;28;20042;-69
2022/01/31 01:02:01;;;;;;;29.15;9.25;;;;;;;4.21;100.00;101225.84;4996591;28;20360;-69
2022/01/31 01:04:26;;;;;;;24.05;8.73;;;;;;;4.14;100.00;101227.94;4996718;28;20042;-69
2022/01/31 01:06:52;;;;;;;25.63;9.85;;;;;;;4.07;100.00;101204.66;4996554;28;20072;-69
2022/01/31 01:09:17;;;;;;;24.98;8.75;;;;;;;3.94;100.00;101190.72;5002099;28;20101;-69
2022/01/31 01:11:43;;;;;;;28.88;8.30;;;;;;;3.99;100.00;101183.50;4976373;28;20388;-69
2022/01/31 01:14:08;;;;;;;22.50;8.02;;;;;;;3.96;100.00;101184.00;4975366;28;20042;-69
2022/01/31 01:16:34;;;;;;;22.48;9.02;;;;;;;3.87;100.00;101182.81;4974764;28;20034;-70
2022/01/31 01:19:00;;;;;;;32.40;9.90;;;;;;;3.97;100.00;101160.53;4975079;28;20898;-69
2022/01/31 01:21:25;;;;;;;28.35;10.52;;;;;;;3.88;100.00;101156.63;4995774;28;20041;-69
2022/01/31 01:23:51;;;;;;;24.20;9.05;;;;;;;3.89;100.00;101148.28;4996323;28;20041;-69
2022/01/31 01:26:16;;;;;;;37.05;10.50;;;;;;;3.91;100.00;101137.25;5010241;28;20264;-69
2022/01/31 01:28:44;;;;;;;18.10;8.73;;;;;;;3.86;100.00;101127.19;4995660;28;20030;-70
2022/01/31 01:31:10;;;;;;;35.50;10.07;;;;;;;3.78;100.00;101119.53;5011106;28;20578;-70
2022/01/31 01:33:41;;;;;;;29.73;9.88;;;;;;;3.80;100.00;101117.41;5010328;28;20052;-70
2022/01/31 01:36:07;;;;;;;36.45;10.25;;;;;;;3.76;100.00;101095.53;5009670;28;20159;-69
2022/01/31 01:38:33;;;;;;;34.70;10.65;;;;;;;3.73;100.00;101089.84;5010237;28;20502;-69
2022/01/31 01:41:00;;;;;;;26.10;10.25;;;;;;;3.71;100.00;101089.25;5016771;23;20129;-68
2022/01/31 01:43:27;;;;;;;36.38;10.65;;;;;;;3.78;100.00;101081.78;5037750;28;20076;-68
2022/01/31 01:45:55;;;;;;;27.98;11.02;;;;;;;3.66;100.00;101078.41;5038401;28;20394;-68
2022/01/31 01:48:23;;;;;;;29.85;10.60;;;;;;;3.65;100.00;101072.22;5037700;28;20036;-68
2022/01/31 01:50:51;;;;;;;31.48;12.15;;;;;;;3.73;100.00;101068.25;5036964;28;20041;-68
2022/01/31 01:53:19;;;;;;;24.95;10.23;;;;;;;3.53;100.00;101063.44;5037010;28;20607;-68
2022/01/31 01:55:46;;;;;;;34.92;11.98;;;;;;;3.62;100.00;101046.56;5036470;28;20037;-68
2022/01/31 01:58:15;;;;;;;34.67;11.50;;;;;;;3.62;100.00;101035.75;5037009;28;20563;-68
2022/01/31 02:00:50;;;;;;;34.47;11.30;;;;;;;3.63;100.00;101037.38;5036579;28;20460;-68
2022/01/31 02:03:19;;;;;;;41.00;11.65;;;;;;;3.56;100.00;101035.97;5036353;28;20036;-69
2022/01/31 02:05:46;;;;;;;29.52;9.70;;;;;;;3.51;100.00;101023.22;5036296;28;20033;-68
2022/01/31 02:08:14;;;;;;;35.17;10.90;;;;;;;3.55;100.00;101024.38;5036739;28;20068;-68
2022/01/31 02:10:40;;;;;;;37.75;11.80;;;;;;;3.50;100.00;101005.44;5038425;28;20560;-68
2022/01/31 02:13:11;;;;;;;27.67;9.80;;;;;;;3.45;100.00;100997.28;5036896;28;20433;-68
2022/01/31 02:16:09;;;;;;;25.08;10.77;;;;;;;3.66;100.00;100986.72;5038458;28;20045;-68
2022/01/31 02:18:49;;;;;;;25.60;10.02;;;;;;;3.55;100.00;100970.44;5036129;28;20045;-68
2022/01/31 02:21:34;;;;;;;23.17;8.63;;;;;;;3.60;100.00;100957.00;5014113;28;20127;-68
2022/01/31 02:24:17;;;;;;;25.17;9.30;;;;;;;3.61;100.00;100945.16;5035478;28;20033;-68
2022/01/31 02:26:49;;;;;;;19.80;8.88;;;;;;;3.70;100.00;100945.50;5035400;28;20044;-68
2022/01/31 02:29:27;;;;;;;26.83;10.07;;;;;;;3.73;100.00;100938.81;5035598;28;20469;-68
2022/01/31 02:31:52;;;;;;;20.58;10.20;;;;;;;3.80;100.00;100917.81;5035967;28;20086;-68
2022/01/31 02:34:18;;;;;;;17.98;9.13;;;;;;;3.85;100.00;100905.19;5025167;28;20037;-68
2022/01/31 02:36:44;;;;;;;20.40;9.65;;;;;;;3.77;100.00;100896.75;5016821;28;20043;-68
2022/01/31 02:39:10;;;;;;;30.17;10.23;;;;;;;3.81;100.00;100893.28;5016293;28;20402;-69
2022/01/31 02:41:43;;;;;;;20.65;9.52;;;;;;;3.88;100.00;100876.06;5016424;28;20053;-68
2022/01/31 02:44:16;;;;;;;27.88;11.20;;;;;;;3.89;100.00;100880.38;5015767;28;20075;-68
2022/01/31 02:47:00;;;;;;;24.23;11.45;;;;;;;3.89;100.00;100878.50;5016235;28;20043;-68
2022/01/31 02:49:33;;;;;;;25.45;11.32;;;;;;;3.89;100.00;100873.09;4999429;28;20040;-68
2022/01/31 02:52:02;;;;;;;25.85;11.30;;;;;;;4.03;100.00;100858.09;5015185;28;20041;-69
2022/01/31 02:54:29;;;;;;;32.70;12.07;;;;;;;4.08;100.00;100855.44;5016467;28;20411;-69
2022/01/31 02:56:55;;;;;;;23.95;11.77;;;;;;;4.16;100.00;100848.75;5016118;28;20044;-69
2022/01/31 02:59:21;;;;;;;21.08;10.45;;;;;;;4.20;100.00;100835.53;5023531;28;20045;-68
2022/01/31 03:01:47;;;;;;;26.60;10.63;;;;;;;4.28;100.00;100838.56;5035189;28;20069;-69
2022/01/31 03:04:13;;;;;;;24.80;11.65;;;;;;;4.29;100.00;100839.38;5035734;28;20041;-68
2022/01/31 03:06:42;;;;;;;29.80;11.45;;;;;;;4.32;100.00;100822.66;5035225;28;20457;-69
2022/01/31 03:09:08;;;;;;;28.63;12.63;;;;;;;4.38;100.00;100821.59;5035633;28;20136;-69
2022/01/31 03:11:38;;;;;;;33.08;12.55;;;;;;;4.37;100.00;100814.59;5036415;28;20052;-69
2022/01/31 03:14:06;;;;;;;18.20;11.00;;;;;;;4.45;100.00;100805.97;5035184;28;20520;-69
2022/01/31 03:16:39;;;;;;;29.60;11.52;;;;;;;4.48;100.00;100812.72;5035529;28;20043;-68
2022/01/31 03:19:17;;;;;;;28.98;11.40;;;;;;;4.66;100.00;100803.38;5035648;28;20095;-69
2022/01/31 03:21:46;;;;;;;25.63;11.70;;;;;;;4.67;100.00;100796.88;5036324;28;20780;-69
2022/01/31 03:24:12;;;;;;;24.35;10.98;;;;;;;4.68;100.00;100798.50;5036253;28;20033;-68
2022/01/31 03:26:39;;;;;;;24.75;11.32;;;;;;;4.68;100.00;100793.91;5035404;28;20088;-69
2022/01/31 03:29:05;;;;;;;29.58;11.75;;;;;;;4.75;100.00;100793.66;5037428;28;20371;-69
2022/01/31 03:31:31;;;;;;;30.50;11.40;;;;;;;4.80;100.00;100785.59;5035579;28;20041;-68
2022/01/31 03:33:58;;;;;;;24.15;11.25;;;;;;;4.81;100.00;100773.69;5035309;28;20153;-69
2022/01/31 03:36:23;;;;;;;26.88;10.90;;;;;;;4.85;100.00;100777.47;5034819;28;20053;-69
2022/01/31 03:38:50;;;;;;;28.15;10.85;;;;;;;4.88;100.00;100768.81;5034589;28;20430;-68
2022/01/31 03:41:18;;;;;;;38.75;11.80;;;;;;;4.96;100.00;100770.19;5033922;28;20061;-69
2022/01/31 03:43:44;;;;;;;34.33;11.48;;;;;;;4.95;100.00;100765.88;5036609;28;20478;-68
2022/01/31 03:46:09;;;;;;;36.72;10.93;;;;;;;5.02;100.00;100760.22;5036538;28;20044;-69
2022/01/31 03:48:36;;;;;;;27.83;10.80;;;;;;;5.03;100.00;100737.50;5034200;28;20037;-68
2022/01/31 03:51:07;;;;;;;25.95;10.20;;;;;;;5.02;100.00;100739.41;5034675;28;20930;-69
2022/01/31 03:53:33;;;;;;;31.13;10.02;;;;;;;5.05;100.00;100740.75;5034069;28;20036;-69
2022/01/31 03:55:59;;;;;;;31.60;9.73;;;;;;;5.14;100.00;100744.53;5034302;28;20041;-69
2022/01/31 03:58:25;;;;;;;19.90;8.80;;;;;;;5.12;100.00;100730.47;5034162;28;20033;-69
2022/01/31 04:00:59;;;;;;;28.10;9.43;;;;;;;5.21;100.00;100737.00;5034698;28;20350;-69
2022/01/31 04:03:24;;;;;;;23.00;8.52;;;;;;;5.25;100.00;100731.84;5036103;28;20508;-69
2022/01/31 04:05:50;;;;;;;23.58;8.00;;;;;;;5.25;100.00;100726.44;5035892;28;20052;-69
2022/01/31 04:08:15;;;;;;;30.13;9.40;;;;;;;5.30;100.00;100745.38;5036053;28;20726;-69
2022/01/31 04:10:41;;;;;;;28.60;7.45;;;;;;;5.35;100.00;100729.97;5035868;28;20049;-69
2022/01/31 04:13:06;;;;;;;16.00;5.57;;;;;;;5.37;100.00;100718.84;5035593;28;20079;-68
2022/01/31 04:15:35;;;;;;;31.92;6.72;;;;;;;5.43;100.00;100723.16;5035836;28;20450;-69
2022/01/31 04:18:01;;;;;;;21.55;5.88;;;;;;;5.46;100.00;100706.41;5035763;28;20041;-68
2022/01/31 04:20:26;;;;;;;31.00;5.60;;;;;;;5.49;100.00;100713.97;5035849;28;20056;-68
2022/01/31 04:22:57;;;;;;;20.30;5.05;;;;;;;5.53;100.00;100703.44;5035650;28;20045;-69
2022/01/31 04:28:16;;;;;;;30.42;5.05;;;;;;;5.60;100.00;100703.94;5040296;28;20080;-69
2022/01/31 04:30:46;;;;;;;24.58;4.28;;;;;;;5.58;100.00;100693.38;5039850;28;20091;-69
2022/01/31 04:33:11;;;;;;;21.15;5.75;;;;;;;5.54;100.00;100686.91;5039532;28;20057;-68
2022/01/31 04:35:37;;;;;;;22.65;4.78;;;;;;;5.54;100.00;100686.91;5039113;28;20052;-68
2022/01/31 04:38:02;;;;;;;14.63;4.25;;;;;;;5.52;100.00;100688.28;5039159;28;20663;-69
2022/01/31 04:40:27;;;;;;;21.60;4.10;;;;;;;5.49;100.00;100673.41;5038556;28;20056;-69
2022/01/31 04:42:53;;;;;;;20.67;4.60;;;;;;;5.54;100.00;100678.00;5038983;28;20158;-69
2022/01/31 04:45:18;;;;;;;20.13;3.90;;;;;;;5.56;100.00;100675.84;5038604;28;20044;-69
2022/01/31 04:47:43;;;;;;;21.08;4.43;;;;;;;5.54;100.00;100670.69;5039245;28;20041;-69
2022/01/31 04:50:09;;;;;;;18.27;5.03;;;;;;;5.54;100.00;100669.88;5039313;28;20049;-69
2022/01/31 04:52:35;;;;;;;19.85;3.97;;;;;;;5.49;100.00;100675.31;5038949;28;20136;-69
2022/01/31 04:55:01;;;;;;;28.23;4.20;;;;;;;5.65;100.00;100683.13;5038620;28;20041;-69
2022/01/31 04:57:26;;;;;;;26.35;4.22;;;;;;;5.49;100.00;100675.31;5038683;28;20055;-69
2022/01/31 04:59:52;;;;;;;22.75;5.15;;;;;;;5.51;100.00;100660.41;5039041;28;20383;-69
2022/01/31 05:02:17;;;;;;;22.92;4.50;;;;;;;5.50;100.00;100650.69;5038967;28;20055;-69
2022/01/31 05:04:43;;;;;;;11.80;4.05;;;;;;;5.51;100.00;100646.09;5038850;28;20048;-69
2022/01/31 05:07:08;;;;;;;17.65;3.58;;;;;;;5.44;100.00;100649.09;5030792;28;20517;-69
2022/01/31 05:09:34;;;;;;;17.95;3.63;;;;;;;5.49;100.00;100640.13;5020476;28;20041;-69
2022/01/31 05:11:59;;;;;;;16.73;3.67;;;;;;;5.52;100.00;100639.59;5030032;28;20454;-68
2022/01/31 05:14:25;;;;;;;25.42;5.22;;;;;;;5.54;100.00;100648.25;5037684;28;20374;-69
2022/01/31 05:16:50;;;;;;;20.70;5.65;;;;;;;5.53;100.00;100643.94;5037978;28;20041;-68
2022/01/31 05:19:15;;;;;;;16.70;4.13;;;;;;;5.49;100.00;100618.50;5036662;28;20099;-69
2022/01/31 05:21:41;;;;;;;17.55;3.25;;;;;;;5.41;100.00;100628.81;5037643;28;20044;-68
2022/01/31 05:24:07;;;;;;;19.83;3.90;;;;;;;5.49;100.00;100618.50;5037856;28;20044;-69
2022/01/31 05:26:33;;;;;;;30.60;4.65;;;;;;;5.48;100.00;100619.59;5037757;28;20571;-69
2022/01/31 05:28:58;;;;;;;21.50;3.58;;;;;;;5.45;100.00;100613.66;5037420;28;20539;-69
2022/01/31 05:31:24;;;;;;;23.83;4.55;;;;;;;5.39;100.00;100613.94;5037109;28;20045;-68
2022/01/31 05:33:49;;;;;;;27.30;4.25;;;;;;;5.44;100.00;100606.63;5035413;28;20048;-68
2022/01/31 05:36:15;;;;;;;27.35;4.57;;;;;;;5.47;100.00;100609.84;5035190;28;20068;-69
2022/01/31 05:38:41;;;;;;;20.30;4.20;;;;;;;5.45;100.00;100602.03;5025208;28;20622;-69
2022/01/31 05:41:10;;;;;;;21.08;3.78;;;;;;;5.33;100.00;100594.22;5036124;28;20084;-69
2022/01/31 05:43:36;;;;;;;26.65;4.72;;;;;;;5.38;100.00;100590.66;5036430;28;20041;-69
2022/01/31 05:46:02;;;;;;;23.73;4.88;;;;;;;5.39;100.00;100598.53;5035443;28;20075;-69
2022/01/31 05:48:28;;;;;;;25.85;5.30;;;;;;;5.33;100.00;100602.34;5026029;28;20045;-69
2022/01/31 05:50:53;;;;;;;20.60;4.50;;;;;;;5.33;100.00;100605.03;5031017;28;20543;-69
2022/01/31 05:53:19;;;;;;;24.25;5.53;;;;;;;5.28;100.00;100629.38;5021141;28;20045;-68
2022/01/31 05:55:45;;;;;;;19.35;3.63;;;;;;;5.14;100.00;100645.34;5031426;28;20056;-68
2022/01/31 05:58:10;;;;;;;19.65;4.03;;;;;;;4.75;100.00;100656.69;5022176;28;20041;-69
2022/01/31 06:00:37;;;;;;;13.90;3.22;;;;;;;4.38;100.00;100675.81;5034251;28;20370;-68
2022/01/31 06:03:03;;;;;;;9.05;2.67;;;;;;;4.30;100.00;100673.63;5023130;28;20046;-69
2022/01/31 06:05:29;;;;;;;10.52;2.65;;;;;;;4.35;100.00;100659.34;5017500;28;20041;-69
2022/01/31 06:07:55;;;;;;;9.52;2.63;;;;;;;4.41;100.00;100639.38;5016390;28;20044;-69
2022/01/31 06:10:23;;;;;;;9.65;2.67;;;;;;;4.44;100.00;100631.53;5016756;28;20103;-69
2022/01/31 06:12:48;;;;;;;16.98;3.13;;;;;;;4.44;100.00;100636.94;5017001;28;20045;-69
2022/01/31 06:15:15;;;;;;;14.18;2.88;;;;;;;4.46;100.00;100632.09;5018107;28;20501;-69
2022/01/31 06:17:40;;;;;;;21.48;4.22;;;;;;;4.46;100.00;100626.69;5018064;28;20087;-69
2022/01/31 06:20:06;;;;;;;11.63;2.58;;;;;;;4.35;100.00;100637.75;5027173;28;20052;-69
2022/01/31 06:22:31;;;;;;;10.02;2.80;;;;;;;4.27;100.00;100622.88;5037067;28;20597;-69
2022/01/31 06:24:57;;;;;;;11.82;2.75;;;;;;;4.30;100.00;100622.34;5037006;28;20049;-69
2022/01/31 06:27:30;;;;;;;13.40;2.70;;;;;;;4.27;100.00;100625.56;5035908;28;20132;-69
2022/01/31 06:29:56;;;;;;;19.40;3.55;;;;;;;4.28;100.00;100627.22;5034693;28;20036;-69
2022/01/31 06:32:26;;;;;;;19.75;3.13;;;;;;;4.29;100.00;100628.81;5035148;28;20476;-69
2022/01/31 06:34:53;;;;;;;15.07;2.60;;;;;;;4.23;100.00;100635.28;5036811;28;20048;-69
2022/01/31 06:37:18;;;;;;;20.63;3.20;;;;;;;4.35;100.00;100629.66;5036510;28;20638;-69
2022/01/31 06:39:44;;;;;;;12.05;3.22;;;;;;;4.21;100.00;100613.16;5036762;28;20037;-69
2022/01/31 06:42:09;;;;;;;11.48;3.08;;;;;;;4.26;100.00;100610.47;5034002;28;20525;-69
2022/01/31 06:44:37;;;;;;;18.15;2.67;;;;;;;4.29;100.00;100608.03;5034297;28;20044;-69
2022/01/31 06:47:03;;;;;;;22.15;3.97;;;;;;;4.34;100.00;100604.53;5028427;28;20052;-69
2022/01/31 06:49:28;;;;;;;23.77;3.83;;;;;;;4.30;100.00;100598.88;5017016;28;20543;-70
2022/01/31 06:51:53;;;;;;;24.65;3.55;;;;;;;4.36;100.00;100591.56;5017474;28;20041;-69
2022/01/31 06:54:19;;;;;;;25.83;4.43;;;;;;;4.35;100.00;100594.56;5018165;28;20041;-69
2022/01/31 06:56:45;;;;;;;19.67;4.60;;;;;;;4.42;100.00;100595.09;5017829;28;20038;-70
2022/01/31 06:59:10;;;;;;;16.95;4.40;;;;;;;4.45;100.00;100592.69;5024460;28;20076;-69
2022/01/31 07:01:36;;;;;;;18.80;4.65;;;;;;;4.46;100.00;100594.28;5038050;28;20048;-69
2022/01/31 07:04:01;;;;;;;17.63;4.15;;;;;;;4.48;100.00;100589.44;5038126;28;20282;-69
2022/01/31 07:06:26;;;;;;;22.10;3.85;;;;;;;4.57;100.00;100575.38;5038734;28;20073;-69
2022/01/31 07:08:52;;;;;;;23.45;4.85;;;;;;;4.56;100.00;100581.88;5035702;28;20401;-69
2022/01/31 07:11:22;;;;;;;27.20;4.13;;;;;;;4.62;100.00;100572.69;5039732;28;20445;-69
2022/01/31 07:13:49;;;;;;;18.95;3.40;;;;;;;4.65;100.00;100575.66;5039991;28;20124;-69
2022/01/31 07:16:15;;;;;;;20.45;3.83;;;;;;;4.60;100.00;100561.38;5040874;28;20700;-69
2022/01/31 07:18:42;;;;;;;11.57;3.50;;;;;;;4.67;100.00;100572.69;5040891;28;20143;-69
2022/01/31 07:21:11;;;;;;;19.70;3.83;;;;;;;4.65;100.00;100569.44;5025558;28;20063;-69
2022/01/31 07:24:03;;;;;;;17.20;3.38;;;;;;;4.66;100.00;100558.38;5018432;28;20048;-70
2022/01/31 07:26:28;;;;;;;18.27;3.97;;;;;;;4.66;100.00;100555.69;5016734;28;20052;-70
2022/01/31 07:28:53;;;;;;;15.35;3.65;;;;;;;4.68;100.00;100550.81;5018298;28;20042;-70
2022/01/31 07:31:19;;;;;;;16.90;3.63;;;;;;;4.65;100.00;100540.53;5018523;28;20132;-70
2022/01/31 07:33:44;;;;;;;17.50;3.60;;;;;;;4.64;100.00;100546.22;5019186;28;20037;-69
2022/01/31 07:36:11;;;;;;;10.73;3.35;;;;;;;4.69;100.00;100536.22;5021294;28;20442;-70
2022/01/31 07:38:36;;;;;;;24.30;3.08;;;;;;;4.66;100.00;100547.59;5018147;28;20034;-70
2022/01/31 07:41:02;;;;;;;20.92;3.88;;;;;;;4.68;100.00;100539.19;5017153;28;20888;-70
2022/01/31 07:43:30;;;;;;;16.98;2.92;;;;;;;4.65;100.00;100535.13;5018620;28;20041;-69
2022/01/31 07:45:56;;;;;;;22.20;3.13;;;;;;;4.71;100.00;100544.03;5018388;28;20063;-70
2022/01/31 07:48:25;;;;;;;24.60;3.45;;;;;;;4.68;100.00;100545.44;5017633;28;20485;-70
2022/01/31 07:50:51;;;;;;;20.58;2.88;;;;;;;4.68;100.00;100550.81;5019145;28;20787;-70
2022/01/31 07:53:17;;;;;;;19.60;3.88;;;;;;;4.67;100.00;100557.28;5017709;28;20049;-69
2022/01/31 07:55:42;;;;;;;17.20;3.25;;;;;;;4.71;100.00;100554.84;5018523;28;20048;-70
2022/01/31 07:58:07;;;;;;;20.77;4.40;;;;;;;4.67;100.00;100537.59;5018698;28;20049;-69
2022/01/31 08:00:33;;;;;;;19.08;4.10;;;;;;;4.68;100.00;100561.63;5038323;28;20045;-70
2022/01/31 08:02:58;;;;;;;24.58;4.55;;;;;;;4.70;100.00;100558.66;5040982;28;20057;-70
2022/01/31 08:05:24;;;;;;;23.15;4.22;;;;;;;4.64;100.00;100559.72;5041520;28;20045;-70
2022/01/31 08:07:49;;;;;;;16.77;4.15;;;;;;;4.59;100.00;100557.84;5041276;28;20455;-70
2022/01/31 08:10:16;;;;;;;20.55;4.30;;;;;;;4.66;100.00;100558.38;5024959;28;20045;-70
2022/01/31 08:12:42;;;;;;;16.65;2.97;;;;;;;4.58;100.00;100560.81;5019947;28;20045;-70
2022/01/31 08:15:14;;;;;;;19.67;3.80;;;;;;;4.58;100.00;100547.31;5020531;28;20055;-70
2022/01/31 08:17:39;;;;;;;23.00;3.83;;;;;;;4.67;100.00;100559.19;5038286;28;20051;-70
2022/01/31 08:20:05;;;;;;;26.38;3.50;;;;;;;4.72;100.00;100551.09;5039545;28;20045;-70
2022/01/31 08:22:30;;;;;;;22.17;3.83;;;;;;;4.65;100.00;100547.84;5039977;28;20119;-70
2022/01/31 08:24:56;;;;;;;23.30;3.88;;;;;;;4.69;100.00;100540.84;5040215;28;20091;-69
2022/01/31 08:27:22;;;;;;;22.25;3.95;;;;;;;4.82;100.00;100544.84;5039771;28;20413;-70
2022/01/31 08:29:47;;;;;;;23.65;4.07;;;;;;;4.78;100.00;100550.00;5039961;28;20505;-71
2022/01/31 08:32:25;;;;;;;27.83;4.35;;;;;;;4.67;100.00;100554.59;5045632;28;20041;-71
2022/01/31 08:37:34;;;;;;;21.65;4.00;;;;;;;4.67;100.00;100557.28;5047477;28;20096;-71
2022/01/31 08:39:59;;;;;;;22.85;4.90;;;;;;;4.64;100.00;100559.72;5045878;28;20041;-71
2022/01/31 08:42:27;;;;;;;21.15;3.78;;;;;;;4.64;100.00;100557.84;5046178;28;20052;-71
2022/01/31 08:44:53;;;;;;;20.33;4.60;;;;;;;4.73;100.00;100552.69;5044925;28;20029;-71
2022/01/31 08:47:18;;;;;;;18.65;3.55;;;;;;;4.88;100.00;100549.97;5044980;28;20033;-71
2022/01/31 08:49:44;;;;;;;26.33;4.03;;;;;;;4.85;100.00;100550.53;5045389;28;20044;-71
2022/01/31 08:52:10;;;;;;;32.30;4.18;;;;;;;4.75;100.00;100556.75;5046069;28;20397;-71
2022/01/31 08:54:35;;;;;;;24.00;4.38;;;;;;;4.76;100.00;100547.56;5049095;28;20623;-71
2022/01/31 08:57:01;;;;;;;15.55;3.80;;;;;;;4.76;100.00;100562.97;5046448;28;20052;-71
2022/01/31 08:59:28;;;;;;;20.75;3.53;;;;;;;4.82;100.00;100561.88;5043161;28;20048;-71
2022/01/31 09:02:03;;;;;;;19.08;3.70;;;;;;;4.95;100.00;100545.13;5042069;28;20040;-71
2022/01/31 09:04:47;;;;;;;17.27;4.10;;;;;;;5.03;100.00;100554.53;5040366;28;20560;-71
2022/01/31 09:07:13;;;;;;;25.63;4.43;;;;;;;4.96;100.00;100548.63;5039663;28;20043;-71
2022/01/31 09:09:38;;;;;;;28.70;4.70;;;;;;;4.89;100.00;100532.69;5029483;28;20033;-71
2022/01/31 09:12:06;;;;;;;19.67;3.42;;;;;;;4.84;100.00;100538.09;5017935;28;20341;-71
2022/01/31 09:14:32;;;;;;;28.40;5.72;;;;;;;4.89;100.00;100540.81;5019921;28;20408;-71
2022/01/31 09:16:57;;;;;;;34.35;6.15;;;;;;;4.93;100.00;100547.28;5038665;28;20045;-71
2022/01/31 09:19:23;;;;;;;36.92;5.63;;;;;;;4.92;100.00;100545.66;5039585;28;20037;-71
2022/01/31 09:21:49;;;;;;;23.92;5.40;;;;;;;4.91;100.00;100565.63;5039725;28;20107;-71
2022/01/31 09:24:14;;;;;;;26.50;4.78;;;;;;;4.88;100.00;100563.47;5040343;28;20229;-71
2022/01/31 09:26:40;;;;;;;41.00;5.05;;;;;;;4.88;100.00;100563.47;5037525;28;20044;-71
2022/01/31 09:29:05;;;;;;;32.00;5.57;;;;;;;4.90;100.00;100558.63;5039427;28;20041;-72
2022/01/31 09:31:31;;;;;;;24.80;4.97;;;;;;;4.92;100.00;100577.28;5037673;28;20051;-71
2022/01/31 09:33:56;;;;;;;29.95;5.00;;;;;;;4.90;100.00;100561.31;5039104;28;20389;-71
2022/01/31 09:36:22;;;;;;;28.98;4.28;;;;;;;4.75;100.00;100616.19;5040415;28;20021;-71
2022/01/31 09:38:48;;;;;;;33.25;5.68;;;;;;;4.81;100.00;100575.66;5040690;28;20063;-71
2022/01/31 09:41:18;;;;;;;28.25;4.85;;;;;;;4.83;100.00;100601.34;5042014;28;20119;-71
2022/01/31 09:48:44;;;;;;;36.60;4.95;;;;;;;5.01;100.00;100612.66;5041973;28;20124;-71
2022/01/31 09:51:21;;;;;;;30.27;5.70;;;;;;;4.97;100.00;100626.72;5039473;28;20045;-71
2022/01/31 09:54:03;;;;;;;27.08;4.10;;;;;;;4.97;100.00;100624.03;5040966;28;20049;-71
2022/01/31 09:56:37;;;;;;;21.30;3.73;;;;;;;5.03;100.00;100648.31;5041887;28;20045;-71
2022/01/31 09:59:03;;;;;;;25.10;3.42;;;;;;;5.05;100.00;100635.34;5042778;28;20045;-71
2022/01/31 10:01:35;;;;;;;36.53;4.15;;;;;;;5.14;100.00;100631.00;5043020;28;20048;-71
2022/01/31 10:04:13;;;;;;;24.33;4.07;;;;;;;5.10;100.00;100627.25;5042148;28;20045;-72
2022/01/31 10:06:40;;;;;;;27.92;4.68;;;;;;;5.15;100.00;100640.75;5042142;28;20087;-71
2022/01/31 10:09:06;;;;;;;34.00;4.78;;;;;;;5.18;100.00;100624.00;5042745;28;20500;-71
2022/01/31 10:11:53;;;;;;;34.00;4.63;;;;;;;5.07;100.00;100660.22;5042208;28;20049;-71
2022/01/31 10:17:06;;;;;;;32.72;5.07;;;;;;;5.05;100.00;100670.47;5042436;28;20097;-71
2022/01/31 10:19:43;;;;;;;21.23;4.28;;;;;;;5.17;100.00;100681.81;5040509;28;20040;-71
2022/01/31 10:22:13;;;;;;;23.13;4.65;;;;;;;5.25;100.00;100684.00;5040426;28;20045;-72
2022/01/31 10:24:40;;;;;;;39.00;6.65;;;;;;;5.38;100.00;100696.97;5040642;28;20060;-71
2022/01/31 10:27:14;;;;;;;32.55;5.25;;;;;;;5.40;100.00;100697.47;5041406;28;20072;-71
2022/01/31 10:29:41;;;;;;;29.98;6.10;;;;;;;5.23;100.00;100718.59;5041318;28;20045;-71
2022/01/31 10:32:11;;;;;;;45.03;7.07;;;;;;;5.47;100.00;100707.22;5042623;28;20051;-71
2022/01/31 10:34:40;;;;;;;45.15;5.70;;;;;;;5.33;100.00;100702.38;5033469;28;20034;-71
2022/01/31 10:37:11;;;;;;;37.65;5.18;;;;;;;5.14;100.00;100710.19;5020644;28;20478;-71
2022/01/31 10:51:53;;;;;;;37.80;6.38;;;;;;;5.32;100.00;100725.06;5039486;28;20047;-71
2022/01/31 10:57:17;;;;;;;33.83;5.25;;;;;;;5.30;100.00;100732.66;5037328;28;20815;-71
2022/01/31 10:59:46;;;;;;;36.67;5.63;;;;;;;5.22;100.00;100735.91;5037271;28;20036;-71
2022/01/31 11:02:24;;;;;;;34.60;5.85;;;;;;;5.27;100.00;100752.13;5035049;28;20040;-71
2022/01/31 11:04:50;;;;;;;48.10;8.75;;;;;;;5.31;100.00;100755.09;5038550;28;20045;-72
2022/01/31 11:07:21;;;;;;;42.80;8.05;;;;;;;5.52;100.00;100758.59;5037825;28;20039;-71
2022/01/31 11:09:49;;;;;;;34.25;6.55;;;;;;;5.50;100.00;100755.34;5025693;28;20046;-71
2022/01/31 11:12:15;;;;;;;28.95;4.40;;;;;;;5.58;100.00;100763.72;5017280;28;20049;-71
2022/01/31 11:14:43;;;;;;;34.95;5.00;;;;;;;5.52;100.00;100775.63;5031298;28;20040;-72
2022/01/31 11:17:14;;;;;;;26.83;3.63;;;;;;;5.59;100.00;100773.47;5035353;28;20106;-71
2022/01/31 11:19:42;;;;;;;30.42;4.13;;;;;;;5.63;100.00;100774.53;5037096;28;20025;-72
2022/01/31 11:22:10;;;;;;;20.02;3.50;;;;;;;5.57;100.00;100785.66;5038442;28;20052;-71
2022/01/31 11:24:45;;;;;;;22.38;5.20;;;;;;;5.61;100.00;100789.41;5038045;28;20546;-72
2022/01/31 11:27:19;;;;;;;25.40;3.60;;;;;;;5.91;100.00;100788.59;5037185;28;20072;-72
2022/01/31 11:29:53;;;;;;;16.80;3.20;;;;;;;5.59;100.00;100788.91;5039424;28;20075;-72
2022/01/31 11:32:19;;;;;;;22.25;3.60;;;;;;;5.46;100.00;100801.06;5039891;28;20060;-72
2022/01/31 11:34:45;;;;;;;21.13;4.13;;;;;;;5.40;100.00;100802.94;5039640;28;20117;-71
2022/01/31 11:37:14;;;;;;;25.17;4.65;;;;;;;5.53;100.00;100809.72;5040014;28;20155;-71
2022/01/31 11:39:45;;;;;;;31.73;5.07;;;;;;;5.71;100.00;100821.09;5040241;28;20055;-72
2022/01/31 11:42:13;;;;;;;32.30;3.77;;;;;;;5.44;100.00;100800.53;5039590;28;20055;-72
2022/01/31 11:44:55;;;;;;;21.67;3.92;;;;;;;5.49;100.00;100802.41;5039855;28;20037;-71
2022/01/31 11:47:25;;;;;;;17.10;3.65;;;;;;;5.44;100.00;100820.28;5040171;28;20044;-71